createdAt,value
2017-10-27T00:09:58.536Z,76.2
2017-10-27T00:20:14.947Z,76.3
2017-10-27T00:30:29.177Z,76.3
2017-10-27T00:40:43.512Z,76.4
2017-10-27T00:51:38.920Z,76.5
2017-10-27T01:02:30.810Z,76.2
2017-10-27T01:13:17.885Z,76.3
2017-10-27T01:24:14.126Z,76.3
2017-10-27T01:35:04.707Z,76.2
2017-10-27T01:45:18.805Z,76.2
2017-10-27T01:55:32.860Z,76.2
2017-10-27T02:06:18.357Z,75.9
2017-10-27T02:16:33.201Z,76.2
2017-10-27T02:26:46.920Z,76.3
2017-10-27T02:37:01.510Z,76.2
2017-10-27T02:47:24.959Z,76.3
2017-10-27T02:57:38.824Z,76.5
2017-10-27T03:09:19.092Z,76.5
2017-10-27T03:19:31.780Z,76.1
2017-10-27T03:30:28.825Z,76.0
2017-10-27T03:40:43.160Z,75.7
2017-10-27T03:50:58.488Z,75.7
2017-10-27T04:01:43.983Z,75.5
2017-10-27T04:11:56.525Z,75.6
2017-10-27T04:22:10.397Z,75.7
2017-10-27T04:32:23.502Z,76.7
2017-10-27T04:42:37.169Z,76.8
2017-10-27T04:54:03.240Z,77.1
2017-10-27T05:04:48.669Z,76.9
2017-10-27T05:14:59.815Z,77.0
2017-10-27T05:25:44.756Z,77.0
2017-10-27T05:35:58.103Z,76.9
2017-10-27T05:46:12.127Z,77.3
2017-10-27T05:56:25.836Z,77.2
2017-10-27T06:07:10.761Z,77.1
2017-10-27T06:17:24.747Z,77.0
2017-10-27T06:27:38.828Z,77.1
2017-10-27T06:37:52.817Z,77.1
2017-10-27T06:48:06.917Z,77.0
2017-10-27T06:58:20.004Z,76.8
2017-10-27T07:09:05.017Z,77.0
2017-10-27T07:19:16.285Z,77.1
2017-10-27T07:29:29.634Z,78.3
2017-10-27T07:39:44.268Z,77.5
2017-10-27T07:50:01.351Z,76.8
2017-10-27T08:00:16.392Z,75.9
2017-10-27T08:11:07.744Z,73.9
2017-10-27T08:21:21.434Z,72.1
2017-10-27T08:31:35.744Z,69.2
2017-10-27T08:41:50.467Z,65.8
2017-10-27T08:52:04.345Z,64.4
2017-10-27T09:02:18.497Z,64.5
2017-10-27T09:13:03.736Z,65.8
2017-10-27T09:23:17.209Z,66.8
2017-10-27T09:33:31.489Z,67.7
2017-10-27T09:43:45.678Z,68.2
2017-10-27T09:53:57.299Z,68.8
2017-10-27T10:04:09.384Z,69.3
2017-10-27T10:14:54.751Z,70.1
2017-10-27T10:25:09.661Z,71.0
2017-10-27T10:35:23.061Z,72.6
2017-10-27T10:45:36.848Z,72.9
2017-10-27T10:55:50.938Z,70.0
2017-10-27T11:06:08.050Z,68.1
2017-10-27T11:17:02.169Z,66.1
2017-10-27T11:27:17.014Z,62.6
2017-10-27T11:37:31.689Z,62.1
2017-10-27T11:48:17.251Z,61.9
2017-10-27T11:59:04.511Z,61.3
2017-10-27T12:09:22.474Z,61.0
2017-10-27T12:19:44.451Z,61.1
2017-10-27T12:30:03.907Z,61.8
2017-10-27T12:40:23.824Z,63.3
2017-10-27T12:50:39.523Z,64.4
2017-10-27T13:01:31.679Z,65.4
2017-10-27T13:12:26.970Z,66.6
2017-10-27T13:23:32.738Z,67.6
2017-10-27T13:35:12.005Z,69.1
2017-10-27T13:45:43.515Z,69.6
2017-10-27T13:56:02.150Z,69.0
2017-10-27T14:06:16.012Z,68.8
2017-10-27T14:16:29.286Z,69.0
2017-10-27T14:26:44.085Z,67.8
2017-10-27T14:50:15.717Z,66.5
2017-10-27T15:00:39.112Z,65.9
2017-10-27T15:11:24.662Z,65.3
2017-10-27T15:21:39.210Z,64.6
2017-10-27T15:31:53.416Z,64.7
2017-10-27T15:42:07.673Z,64.8
2017-10-27T15:52:22.569Z,65.0
2017-10-27T16:02:35.430Z,65.4
2017-10-27T16:13:59.237Z,65.4
2017-10-27T16:24:13.372Z,65.5
2017-10-27T16:34:27.522Z,65.8
2017-10-27T16:44:41.746Z,66.1
2017-10-27T16:54:55.907Z,66.5
2017-10-27T17:05:10.613Z,66.3
2017-10-27T17:15:24.889Z,66.5
2017-10-27T17:25:40.778Z,66.6
2017-10-27T17:35:54.592Z,66.6
2017-10-27T17:46:09.290Z,66.8
2017-10-27T17:56:56.021Z,67.0
2017-10-27T18:07:09.862Z,67.4
2017-10-27T18:17:25.628Z,67.6
2017-10-27T18:28:29.735Z,68.0
2017-10-27T18:38:55.378Z,68.0
2017-10-27T18:49:45.643Z,68.1
2017-10-27T19:00:02.619Z,68.0
2017-10-27T19:10:17.592Z,68.5
2017-10-27T19:21:03.960Z,68.5
2017-10-27T19:31:20.267Z,68.7
2017-10-27T19:41:35.812Z,68.8
2017-10-27T19:51:49.728Z,69.1
2017-10-27T20:02:35.043Z,68.9
2017-10-27T20:12:47.334Z,69.1
2017-10-27T20:23:01.418Z,69.2
2017-10-27T20:33:27.197Z,69.4
2017-10-27T20:43:47.236Z,69.6
2017-10-27T20:54:13.022Z,69.5
2017-10-27T21:04:25.696Z,69.6
2017-10-27T21:14:57.680Z,69.8
2017-10-27T21:25:12.061Z,70.0
2017-10-27T21:35:31.602Z,70.0
2017-10-27T21:46:18.935Z,70.0
2017-10-27T21:56:33.030Z,69.9
2017-10-27T22:07:01.140Z,70.3
2017-10-27T22:17:12.542Z,70.3
2017-10-27T22:27:24.211Z,70.1
2017-10-27T22:37:38.071Z,70.5
2017-10-27T22:47:51.434Z,70.7
2017-10-27T22:58:44.371Z,71.5
2017-10-27T23:08:59.637Z,70.6
2017-10-27T23:19:13.879Z,70.9
2017-10-27T23:29:26.341Z,70.6
2017-10-27T23:39:40.156Z,70.6
2017-10-27T23:49:58.240Z,70.8
